sensor_id;sensor_type;location;lat;lon;timestamp;pressure;altitude;pressure_sealevel;temperature;humidity
86342;BME280;76997;51.520;11.962;2024-03-06T00:00:09;100941;;;2.338985;83.83203
86342;BME280;76997;51.520;11.962;2024-03-06T00:05:08;100944.4;;;2.344063;84.2168
86342;BME280;76997;51.520;11.962;2024-03-06T00:10:09;100947;;;2.436055;83.22559
86342;BME280;76997;51.520;11.962;2024-03-06T00:15:08;100947.4;;;2.530391;83.1084
86342;BME280;76997;51.520;11.962;2024-03-06T00:20:13;100957.1;;;2.218867;84.7959
86342;BME280;76997;51.520;11.962;2024-03-06T00:25:08;100959.5;;;2.300703;84.20996
86342;BME280;76997;51.520;11.962;2024-03-06T00:30:09;100959.6;;;2.356758;83.61523
86342;BME280;76997;51.520;11.962;2024-03-06T00:35:08;100956.2;;;2.35168;83.77148
86342;BME280;76997;51.520;11.962;2024-03-06T00:40:09;100962.3;;;2.425703;83.04688
86342;BME280;76997;51.520;11.962;2024-03-06T00:45:09;100964.5;;;2.328633;83.51758
86342;BME280;76997;51.520;11.962;2024-03-06T00:50:13;100969.3;;;2.492109;82.52832
86342;BME280;76997;51.520;11.962;2024-03-06T00:55:12;100979.3;;;2.185664;83.24023
86342;BME280;76997;51.520;11.962;2024-03-06T01:00:09;100976.8;;;2.047773;84.3877
86342;BME280;76997;51.520;11.962;2024-03-06T01:05:08;100985.2;;;1.687812;85.08594
86342;BME280;76997;51.520;11.962;2024-03-06T01:10:09;100992.1;;;1.644258;85.96973
86342;BME280;76997;51.520;11.962;2024-03-06T01:15:08;100995.8;;;1.503828;85.88965
86342;BME280;76997;51.520;11.962;2024-03-06T01:20:09;101004.3;;;1.291914;86.83496
86342;BME280;76997;51.520;11.962;2024-03-06T01:25:08;101011.9;;;1.217891;87.15039
86342;BME280;76997;51.520;11.962;2024-03-06T01:30:09;101015.9;;;1.097773;87.99707
86342;BME280;76997;51.520;11.962;2024-03-06T01:35:09;101020;;;1.041719;88.7627
86342;BME280;76997;51.520;11.962;2024-03-06T01:40:13;101016.9;;;1.051875;88.99316
86342;BME280;76997;51.520;11.962;2024-03-06T01:45:09;101017.6;;;1.049336;88.93066
86342;BME280;76997;51.520;11.962;2024-03-06T01:50:13;101018.5;;;1.02375;89.00781
86342;BME280;76997;51.520;11.962;2024-03-06T01:55:09;101019.7;;;1.074922;89.02832
86342;BME280;76997;51.520;11.962;2024-03-06T02:00:09;101015;;;1.189766;88.60547
86342;BME280;76997;51.520;11.962;2024-03-06T02:05:08;101015.8;;;1.217891;88.32129
86342;BME280;76997;51.520;11.962;2024-03-06T02:10:09;101015;;;1.184688;88.25391
86342;BME280;76997;51.520;11.962;2024-03-06T02:15:09;101015;;;1.189766;87.73535
86342;BME280;76997;51.520;11.962;2024-03-06T02:20:09;101015.3;;;1.118281;87.64941
86342;BME280;76997;51.520;11.962;2024-03-06T02:25:08;101013.6;;;1.189766;87.05078
86342;BME280;76997;51.520;11.962;2024-03-06T02:30:09;101022.2;;;1.182148;87.2168
86342;BME280;76997;51.520;11.962;2024-03-06T02:35:08;101020.1;;;1.299531;86.46191
86342;BME280;76997;51.520;11.962;2024-03-06T02:40:13;101034.8;;;1.268867;86.74707
86342;BME280;76997;51.520;11.962;2024-03-06T02:45:09;101039;;;1.146406;87.47852
86342;BME280;76997;51.520;11.962;2024-03-06T02:50:09;101040.1;;;1.434883;86.48828
86342;BME280;76997;51.520;11.962;2024-03-06T02:55:09;101045.9;;;1.376289;86.41504
86342;BME280;76997;51.520;11.962;2024-03-06T03:00:14;101047.7;;;1.348164;85.97363
86342;BME280;76997;51.520;11.962;2024-03-06T03:05:08;101050.2;;;1.182148;86.92676
86342;BME280;76997;51.520;11.962;2024-03-06T03:10:09;101055.4;;;1.125898;87.56836
86342;BME280;76997;51.520;11.962;2024-03-06T03:15:09;101059.8;;;1.12082;87.92871
86342;BME280;76997;51.520;11.962;2024-03-06T03:20:09;101064.5;;;0.980391;88.27441
86342;BME280;76997;51.520;11.962;2024-03-06T03:25:11;101075.8;;;0.885859;88.52441
86342;BME280;76997;51.520;11.962;2024-03-06T03:30:09;101078.9;;;0.684102;89.36133
86342;BME280;76997;51.520;11.962;2024-03-06T03:35:08;101084.7;;;0.54875;89.76855
86342;BME280;76997;51.520;11.962;2024-03-06T03:40:09;101088.5;;;0.416133;90.03027
86342;BME280;76997;51.520;11.962;2024-03-06T03:45:12;101091.3;;;0.505391;89.75
86342;BME280;76997;51.520;11.962;2024-03-06T03:50:09;101090.7;;;0.357344;89.78027
86342;BME280;76997;51.520;11.962;2024-03-06T03:55:12;101095.3;;;0.209102;90.12012
86342;BME280;76997;51.520;11.962;2024-03-06T04:00:09;101104.4;;;0.135078;90.29004
86342;BME280;76997;51.520;11.962;2024-03-06T04:05:08;101105.3;;;0.079023;90.4248
86342;BME280;76997;51.520;11.962;2024-03-06T04:10:09;101093.8;;;0.063594;90.40039
86342;BME280;76997;51.520;11.962;2024-03-06T04:15:08;101099.2;;;0.076484;90.69141
86342;BME280;76997;51.520;11.962;2024-03-06T04:20:09;101100.7;;;-0.020586;90.54785
86342;BME280;76997;51.520;11.962;2024-03-06T04:25:08;101103.9;;;-0.102422;90.65332
86342;BME280;76997;51.520;11.962;2024-03-06T04:30:09;101108.4;;;-0.229961;90.69922
86342;BME280;76997;51.520;11.962;2024-03-06T04:35:09;101113;;;-0.235234;90.36719
86342;BME280;76997;51.520;11.962;2024-03-06T04:40:09;101124.5;;;-0.321953;90.57617
86342;BME280;76997;51.520;11.962;2024-03-06T04:45:10;101130;;;-0.467461;90.57715
86342;BME280;76997;51.520;11.962;2024-03-06T04:50:12;101131.3;;;-0.462383;90.52539
86342;BME280;76997;51.520;11.962;2024-03-06T04:55:08;101128.4;;;-0.056328;90.0752
86342;BME280;76997;51.520;11.962;2024-03-06T05:00:09;101135.5;;;-0.464922;90.1748
86342;BME280;76997;51.520;11.962;2024-03-06T05:05:08;101144.8;;;-0.393438;90.76855
86342;BME280;76997;51.520;11.962;2024-03-06T05:10:09;101153.1;;;-0.569609;90.88477
86342;BME280;76997;51.520;11.962;2024-03-06T05:15:13;101151.5;;;-0.756133;91.08203
86342;BME280;76997;51.520;11.962;2024-03-06T05:20:13;101149.8;;;-0.845391;91.14648
86342;BME280;76997;51.520;11.962;2024-03-06T05:25:12;101155.9;;;-0.704961;91.2793
86342;BME280;76997;51.520;11.962;2024-03-06T05:30:09;101162.6;;;-0.90418;91.28906
86342;BME280;76997;51.520;11.962;2024-03-06T05:35:12;101170.2;;;-1.049688;91.16309
86342;BME280;76997;51.520;11.962;2024-03-06T05:40:13;101172.9;;;-0.983281;91.50781
86342;BME280;76997;51.520;11.962;2024-03-06T05:45:08;101178.6;;;-0.776445;91.20117
86342;BME280;76997;51.520;11.962;2024-03-06T05:50:13;101179.9;;;-0.888945;91.20801
86342;BME280;76997;51.520;11.962;2024-03-06T05:55:09;101190.7;;;-0.802031;91.45313
86342;BME280;76997;51.520;11.962;2024-03-06T06:00:09;101190.4;;;-0.66668;91.20508
86342;BME280;76997;51.520;11.962;2024-03-06T06:05:09;101201;;;-0.579961;91.2959
86342;BME280;76997;51.520;11.962;2024-03-06T06:10:08;101202.8;;;-0.401055;90.96289
86342;BME280;76997;51.520;11.962;2024-03-06T06:15:13;101204.5;;;-0.069219;90.02148
86342;BME280;76997;51.520;11.962;2024-03-06T06:20:10;101215.8;;;0.255195;88.71387
86342;BME280;76997;51.520;11.962;2024-03-06T06:25:08;101218.7;;;0.518281;87.50391
86342;BME280;76997;51.520;11.962;2024-03-06T06:30:09;101230.9;;;1.16418;84.58789
86342;BME280;76997;51.520;11.962;2024-03-06T06:35:12;101238.8;;;1.983906;81.24414
86342;BME280;76997;51.520;11.962;2024-03-06T06:40:10;101242.7;;;2.711836;78.1377
86342;BME280;76997;51.520;11.962;2024-03-06T06:45:12;101249.6;;;3.24543;75.36133
86342;BME280;76997;51.520;11.962;2024-03-06T06:50:09;101261.4;;;4.037031;72.65918
86342;BME280;76997;51.520;11.962;2024-03-06T06:55:08;101263.5;;;4.841524;69.33691
86342;BME280;76997;51.520;11.962;2024-03-06T07:00:09;101272.1;;;5.771016;66.43848
86342;BME280;76997;51.520;11.962;2024-03-06T07:05:09;101275.4;;;6.756953;62.46582
86342;BME280;76997;51.520;11.962;2024-03-06T07:10:09;101281;;;6.126289;63.78027
86342;BME280;76997;51.520;11.962;2024-03-06T07:15:09;101278.3;;;7.183516;60.04785
86342;BME280;76997;51.520;11.962;2024-03-06T07:20:13;101285;;;8.978828;53.625
86342;BME280;76997;51.520;11.962;2024-03-06T07:25:09;101292.9;;;9.134687;53.90137
86342;BME280;76997;51.520;11.962;2024-03-06T07:30:14;101295.7;;;8.912422;54.70508
86342;BME280;76997;51.520;11.962;2024-03-06T07:35:08;101300.3;;;8.312226;56.71582
86342;BME280;76997;51.520;11.962;2024-03-06T07:40:09;101305.4;;;8.572773;56.04688
86342;BME280;76997;51.520;11.962;2024-03-06T07:45:09;101306.5;;;9.183125;54.5459
86342;BME280;76997;51.520;11.962;2024-03-06T07:50:10;101309.6;;;10.19953;52.31055
86342;BME280;76997;51.520;11.962;2024-03-06T07:55:08;101312.9;;;11.46125;47.32813
86342;BME280;76997;51.520;11.962;2024-03-06T08:00:09;101324.6;;;10.62102;49.2207
86342;BME280;76997;51.520;11.962;2024-03-06T08:05:13;101332.2;;;12.81984;43.80762
86342;BME280;76997;51.520;11.962;2024-03-06T08:10:13;101336.7;;;11.80598;46.36523
86342;BME280;76997;51.520;11.962;2024-03-06T08:15:10;101341.3;;;11.96437;45.3916
86342;BME280;76997;51.520;11.962;2024-03-06T08:20:09;101346.3;;;12.53391;44.91113
86342;BME280;76997;51.520;11.962;2024-03-06T08:25:10;101349.9;;;13.97688;41.14063
86342;BME280;76997;51.520;11.962;2024-03-06T08:30:09;101348.1;;;14.84797;38.78027
86342;BME280;76997;51.520;11.962;2024-03-06T08:35:10;101354.9;;;16.00227;35.49414
86342;BME280;76997;51.520;11.962;2024-03-06T08:40:09;101352.5;;;17.71359;32.89551
86342;BME280;76997;51.520;11.962;2024-03-06T08:45:09;101360.9;;;19.24602;30.27344
86342;BME280;76997;51.520;11.962;2024-03-06T08:50:09;101370.5;;;18.60754;30.72363
86342;BME280;76997;51.520;11.962;2024-03-06T08:55:09;101371.5;;;21.3509;26.32617
86342;BME280;76997;51.520;11.962;2024-03-06T09:00:09;101374.7;;;22.25246;25.16016
86342;BME280;76997;51.520;11.962;2024-03-06T09:05:09;101384.6;;;22.84504;23.87207
86342;BME280;76997;51.520;11.962;2024-03-06T09:10:13;101382.2;;;22.81184;24.37012
86342;BME280;76997;51.520;11.962;2024-03-06T09:15:09;101386.9;;;21.51184;25.38379
86342;BME280;76997;51.520;11.962;2024-03-06T09:20:09;101396.8;;;21.78254;25.7207
86342;BME280;76997;51.520;11.962;2024-03-06T09:25:13;101395;;;22.13234;25.14258
86342;BME280;76997;51.520;11.962;2024-03-06T09:30:09;101389.2;;;22.64074;23.9502
86342;BME280;76997;51.520;11.962;2024-03-06T09:35:09;101391.5;;;23.18488;23.8457
86342;BME280;76997;51.520;11.962;2024-03-06T09:40:09;101394.4;;;22.43137;24.44922
86342;BME280;76997;51.520;11.962;2024-03-06T09:45:13;101390.8;;;21.84113;25.60254
86342;BME280;76997;51.520;11.962;2024-03-06T09:50:09;101396.1;;;22.77082;24.12305
86342;BME280;76997;51.520;11.962;2024-03-06T09:55:09;101396.8;;;23.16691;23.94531
86342;BME280;76997;51.520;11.962;2024-03-06T10:00:10;101392.3;;;24.04563;23.55762
86342;BME280;76997;51.520;11.962;2024-03-06T10:05:08;101392.2;;;24.73273;22.9248
86342;BME280;76997;51.520;11.962;2024-03-06T10:10:09;101393.5;;;23.24602;22.7041
86342;BME280;76997;51.520;11.962;2024-03-06T10:15:09;101388.7;;;23.21027;24.1582
86342;BME280;76997;51.520;11.962;2024-03-06T10:20:20;101390.2;;;22.64836;24.23926
86342;BME280;76997;51.520;11.962;2024-03-06T10:25:08;101388.5;;;23.94602;22.91797
86342;BME280;76997;51.520;11.962;2024-03-06T10:30:14;101396.7;;;23.15676;23.86621
86342;BME280;76997;51.520;11.962;2024-03-06T10:35:17;101399.2;;;23.49387;22.77246
86342;BME280;76997;51.520;11.962;2024-03-06T10:40:11;101400.9;;;20.09914;28.2041
86342;BME280;76997;51.520;11.962;2024-03-06T10:45:10;101405.3;;;18.14269;30.47168
86342;BME280;76997;51.520;11.962;2024-03-06T10:50:09;101409.1;;;17.01887;32.36328
86342;BME280;76997;51.520;11.962;2024-03-06T10:55:14;101399.8;;;15.93859;35.63086
86342;BME280;76997;51.520;11.962;2024-03-06T11:00:10;101396.4;;;18.37258;32.2207
86342;BME280;76997;51.520;11.962;2024-03-06T11:05:09;101397.5;;;17.5884;32.20801
86342;BME280;76997;51.520;11.962;2024-03-06T11:10:09;101401.1;;;18.76848;30.91016
86342;BME280;76997;51.520;11.962;2024-03-06T11:15:13;101400.1;;;17.86945;31.60352
86342;BME280;76997;51.520;11.962;2024-03-06T11:20:13;101402.9;;;18.44914;30.78906
86342;BME280;76997;51.520;11.962;2024-03-06T11:33:27;101412.5;;;17.1798;33.10742
86342;BME280;76997;51.520;11.962;2024-03-06T11:38:21;101408.7;;;16.56164;32.00195
86342;BME280;76997;51.520;11.962;2024-03-06T11:43:27;101411.2;;;17.57043;31.79004
86342;BME280;76997;51.520;11.962;2024-03-06T11:48:26;101410;;;17.02394;33.00781
86342;BME280;76997;51.520;11.962;2024-03-06T11:53:26;101405.4;;;17.35598;32.68359
86342;BME280;76997;51.520;11.962;2024-03-06T11:58:22;101397.9;;;18.0968;31.43359
86342;BME280;76997;51.520;11.962;2024-03-06T12:03:22;101402.6;;;16.83762;32.29492
86342;BME280;76997;51.520;11.962;2024-03-06T12:08:22;101403;;;16.36242;35.2832
86342;BME280;76997;51.520;11.962;2024-03-06T12:13:25;101404.7;;;17.23078;32.26855
86342;BME280;76997;51.520;11.962;2024-03-06T12:18:22;101410.4;;;16.99855;33.18164
86342;BME280;76997;51.520;11.962;2024-03-06T12:23:24;101398.6;;;17.42492;32.52441
86342;BME280;76997;51.520;11.962;2024-03-06T12:28:24;101404.4;;;18.26535;31.55566
86342;BME280;76997;51.520;11.962;2024-03-06T12:33:22;101408.6;;;16.50285;33.03516
86342;BME280;76997;51.520;11.962;2024-03-06T12:38:25;101399.4;;;16.24758;32.50293
86342;BME280;76997;51.520;11.962;2024-03-06T12:43:22;101399.5;;;17.28703;30.58789
86342;BME280;76997;51.520;11.962;2024-03-06T12:48:26;101387.2;;;16.59738;32.22266
86342;BME280;76997;51.520;11.962;2024-03-06T12:53:22;101390.2;;;18.18352;29.42188
86342;BME280;76997;51.520;11.962;2024-03-06T12:58:22;101388.6;;;18.94484;29.18652
86342;BME280;76997;51.520;11.962;2024-03-06T13:03:22;101386.8;;;19.84387;26.65625
86342;BME280;76997;51.520;11.962;2024-03-06T13:08:22;101388.3;;;18.4466;27.52832
86342;BME280;76997;51.520;11.962;2024-03-06T13:13:22;101389.5;;;18.71223;27.19336
86342;BME280;76997;51.520;11.962;2024-03-06T13:18:22;101387.6;;;19.78508;23.74219
86342;BME280;76997;51.520;11.962;2024-03-06T13:23:22;101394.8;;;20.14524;24.51172
86342;BME280;76997;51.520;11.962;2024-03-06T13:28:22;101404;;;19.21027;25.30762
86342;BME280;76997;51.520;11.962;2024-03-06T13:33:22;101399.9;;;19.18488;25.22949
86342;BME280;76997;51.520;11.962;2024-03-06T13:38:22;101399.9;;;18.31633;26.78418
86342;BME280;76997;51.520;11.962;2024-03-06T13:43:22;101402.3;;;19.44777;25.98242
86342;BME280;76997;51.520;11.962;2024-03-06T13:48:22;101399.3;;;19.71867;26.05371
86342;BME280;76997;51.520;11.962;2024-03-06T13:53:22;101401.7;;;19.21535;25.83691
86342;BME280;76997;51.520;11.962;2024-03-06T13:58:22;101397.3;;;19.26652;25.68555
86342;BME280;76997;51.520;11.962;2024-03-06T14:03:22;101400.1;;;18.78137;25.77832
86342;BME280;76997;51.520;11.962;2024-03-06T14:08:22;101392.9;;;18.93195;25.3584
86342;BME280;76997;51.520;11.962;2024-03-06T14:13:26;101397.5;;;18.97785;25.87793
86342;BME280;76997;51.520;11.962;2024-03-06T14:18:26;101390.1;;;17.88488;26.65918
86342;BME280;76997;51.520;11.962;2024-03-06T14:23:22;101400.4;;;17.80559;26.59961
86342;BME280;76997;51.520;11.962;2024-03-06T14:28:22;101403;;;16.90656;27.74902
86342;BME280;76997;51.520;11.962;2024-03-06T14:33:22;101403.6;;;17.68547;27.62305
86342;BME280;76997;51.520;11.962;2024-03-06T14:38:26;101406.5;;;17.04953;27.47363
86342;BME280;76997;51.520;11.962;2024-03-06T14:43:22;101399.8;;;16.7173;27.75977
86342;BME280;76997;51.520;11.962;2024-03-06T14:48:26;101398.8;;;16.16066;29.17773
86342;BME280;76997;51.520;11.962;2024-03-06T14:53:22;101403.1;;;16.78898;28.77051
86342;BME280;76997;51.520;11.962;2024-03-06T14:58:22;101400.1;;;16.10715;29.8623
86342;BME280;76997;51.520;11.962;2024-03-06T15:03:22;101399.5;;;16.52844;30.50195
86342;BME280;76997;51.520;11.962;2024-03-06T15:08:22;101407.5;;;16.06867;30.39453
86342;BME280;76997;51.520;11.962;2024-03-06T15:13:22;101406.3;;;16.38801;30.13281
86342;BME280;76997;51.520;11.962;2024-03-06T15:18:22;101407.2;;;16.52082;29.77051
86342;BME280;76997;51.520;11.962;2024-03-06T15:23:22;101410.6;;;15.71379;31.78809
86342;BME280;76997;51.520;11.962;2024-03-06T15:28:22;101411.2;;;16.2093;30.55664
86342;BME280;76997;51.520;11.962;2024-03-06T15:33:22;101418.5;;;15.18508;32.25
86342;BME280;76997;51.520;11.962;2024-03-06T15:38:22;101418.5;;;13.66789;35.56641
86342;BME280;76997;51.520;11.962;2024-03-06T15:43:22;101417.1;;;12.95266;36.94727
86342;BME280;76997;51.520;11.962;2024-03-06T15:48:22;101413;;;11.74719;39.75684
86342;BME280;76997;51.520;11.962;2024-03-06T15:53:22;101410.4;;;11.43059;41.08496
86342;BME280;76997;51.520;11.962;2024-03-06T15:58:22;101417.7;;;10.91731;42.18652
86342;BME280;76997;51.520;11.962;2024-03-06T16:03:26;101420.3;;;9.928828;44.29004
86342;BME280;76997;51.520;11.962;2024-03-06T16:08:26;101426.7;;;9.323555;46.10059
86342;BME280;76997;51.520;11.962;2024-03-06T16:13:22;101426.7;;;8.863984;48.00781
86342;BME280;76997;51.520;11.962;2024-03-06T16:18:22;101427.2;;;8.365742;50.2998
86342;BME280;76997;51.520;11.962;2024-03-06T16:23:22;101433.7;;;8.483516;50.95313
86342;BME280;76997;51.520;11.962;2024-03-06T16:28:22;101438;;;8.337617;51.96875
86342;BME280;76997;51.520;11.962;2024-03-06T16:33:22;101436.2;;;8.294258;51.17578
86342;BME280;76997;51.520;11.962;2024-03-06T16:38:22;101442.4;;;8.061836;52.69141
86342;BME280;76997;51.520;11.962;2024-03-06T16:43:26;101448.9;;;7.939375;52.79492
86342;BME280;76997;51.520;11.962;2024-03-06T16:48:22;101452;;;7.433711;54.48633
86342;BME280;76997;51.520;11.962;2024-03-06T16:53:26;101458.7;;;7.231953;56.83984
86342;BME280;76997;51.520;11.962;2024-03-06T16:58:22;101461.3;;;7.053242;57.86621
86342;BME280;76997;51.520;11.962;2024-03-06T17:03:22;101464.2;;;6.82336;58.63086
86342;BME280;76997;51.520;11.962;2024-03-06T17:08:22;101474.4;;;6.34836;60.37598
86342;BME280;76997;51.520;11.962;2024-03-06T17:13:22;101479.1;;;6.419844;61.14746
86342;BME280;76997;51.520;11.962;2024-03-06T17:18:22;101484.2;;;5.913984;61.65723
86342;BME280;76997;51.520;11.962;2024-03-06T17:23:22;101493.1;;;5.983125;61.86816
86342;BME280;76997;51.520;11.962;2024-03-06T17:28:22;101497.9;;;5.822187;62.87988
86342;BME280;76997;51.520;11.962;2024-03-06T17:33:22;101496.3;;;5.980586;62.29102
86342;BME280;76997;51.520;11.962;2024-03-06T17:38:22;101499.6;;;5.996016;62.27051
86342;BME280;76997;51.520;11.962;2024-03-06T17:43:22;101505.6;;;6.05207;61.7832
86342;BME280;76997;51.520;11.962;2024-03-06T17:48:22;101510.6;;;5.676485;62.90137
86342;BME280;76997;51.520;11.962;2024-03-06T17:53:22;101509.1;;;5.919258;62.3877
86342;BME280;76997;51.520;11.962;2024-03-06T17:58:22;101515.1;;;5.929609;62.37793
86342;BME280;76997;51.520;11.962;2024-03-06T18:03:22;101516.7;;;5.771016;63.29395
86342;BME280;76997;51.520;11.962;2024-03-06T18:08:22;101521.9;;;5.76086;64.11719
86342;BME280;76997;51.520;11.962;2024-03-06T18:13:22;101531.1;;;5.57707;65.14355
86342;BME280;76997;51.520;11.962;2024-03-06T18:18:26;101530.5;;;5.658711;65.31543
86342;BME280;76997;51.520;11.962;2024-03-06T18:23:22;101529.6;;;6.115938;64.43359
86342;BME280;76997;51.520;11.962;2024-03-06T18:28:22;101532.6;;;6.20793;63.25391
86342;BME280;76997;51.520;11.962;2024-03-06T18:33:22;101531.8;;;6.302461;63.0459
86342;BME280;76997;51.520;11.962;2024-03-06T18:38:22;101537.2;;;6.16457;63.37305
86342;BME280;76997;51.520;11.962;2024-03-06T18:43:22;101539;;;5.891133;64.03027
86342;BME280;76997;51.520;11.962;2024-03-06T18:48:26;101547.3;;;6.075117;64.25879
86342;BME280;76997;51.520;11.962;2024-03-06T18:53:22;101551.3;;;5.870625;65.15625
86342;BME280;76997;51.520;11.962;2024-03-06T18:58:22;101549.7;;;5.990938;64.91113
86342;BME280;76997;51.520;11.962;2024-03-06T19:03:22;101549.1;;;5.949922;65.08398
86342;BME280;76997;51.520;11.962;2024-03-06T19:08:22;101560.6;;;5.996016;64.24609
86342;BME280;76997;51.520;11.962;2024-03-06T19:13:26;101565.8;;;5.88332;64.80957
86342;BME280;76997;51.520;11.962;2024-03-06T19:18:22;101564.5;;;5.85793;65.29199
86342;BME280;76997;51.520;11.962;2024-03-06T19:23:22;101570.5;;;5.988399;66.19922
86342;BME280;76997;51.520;11.962;2024-03-06T19:28:22;101575.7;;;6.006172;66.66602
86342;BME280;76997;51.520;11.962;2024-03-06T19:33:22;101579.2;;;5.891133;65.8457
86342;BME280;76997;51.520;11.962;2024-03-06T19:38:22;101582.2;;;5.978047;65.62598
86342;BME280;76997;51.520;11.962;2024-03-06T19:43:22;101582.5;;;6.034297;66.42773
86342;BME280;76997;51.520;11.962;2024-03-06T19:48:22;101589.7;;;6.077656;66.69727
86342;BME280;76997;51.520;11.962;2024-03-06T19:53:22;101592.3;;;5.916523;67.31641
86342;BME280;76997;51.520;11.962;2024-03-06T19:58:22;101590;;;6.041914;66.52344
86342;BME280;76997;51.520;11.962;2024-03-06T20:03:22;101587.8;;;5.957735;64.88477
86342;BME280;76997;51.520;11.962;2024-03-06T20:08:22;101588.3;;;5.704609;64.87793
86342;BME280;76997;51.520;11.962;2024-03-06T20:13:22;101587.9;;;5.523359;65.72559
86342;BME280;76997;51.520;11.962;2024-03-06T20:18:26;101591.4;;;5.599922;65.51758
86342;BME280;76997;51.520;11.962;2024-03-06T20:23:22;101595.2;;;5.411055;66.21582
86342;BME280;76997;51.520;11.962;2024-03-06T20:28:26;101592.9;;;5.273164;66.91016
86342;BME280;76997;51.520;11.962;2024-03-06T20:33:22;101592.2;;;5.375312;66.66309
86342;BME280;76997;51.520;11.962;2024-03-06T20:38:22;101592.6;;;5.523359;66.56934
86342;BME280;76997;51.520;11.962;2024-03-06T20:43:26;101589.3;;;5.630586;66.50293
86342;BME280;76997;51.520;11.962;2024-03-06T20:48:22;101587.7;;;5.183711;65.88574
86342;BME280;76997;51.520;11.962;2024-03-06T20:53:22;101586.8;;;5.198946;65.96289
86342;BME280;76997;51.520;11.962;2024-03-06T20:58:22;101577.3;;;5.084102;67.33398
86342;BME280;76997;51.520;11.962;2024-03-06T21:03:22;101580.9;;;5.079023;67.38672
86342;BME280;76997;51.520;11.962;2024-03-06T21:08:22;101583.1;;;5.354805;67.79785
86342;BME280;76997;51.520;11.962;2024-03-06T21:13:22;101588.6;;;5.405977;66.38477
86342;BME280;76997;51.520;11.962;2024-03-06T21:18:26;101590.5;;;5.364961;66.8623
86342;BME280;76997;51.520;11.962;2024-03-06T21:23:22;101588.1;;;5.377852;66.49512
86342;BME280;76997;51.520;11.962;2024-03-06T21:28:22;101592.6;;;5.357344;66.93457
86342;BME280;76997;51.520;11.962;2024-03-06T21:33:22;101589.6;;;5.329219;67.15137
86342;BME280;76997;51.520;11.962;2024-03-06T21:38:22;101595.6;;;5.262813;67.65723
86342;BME280;76997;51.520;11.962;2024-03-06T21:43:22;101595.1;;;5.206758;68.10059
86342;BME280;76997;51.520;11.962;2024-03-06T21:48:26;101595;;;5.26789;67.54199
86342;BME280;76997;51.520;11.962;2024-03-06T21:53:22;101593.4;;;5.331758;69.02734
86342;BME280;76997;51.520;11.962;2024-03-06T21:58:22;101593.7;;;5.357344;67.78711
86342;BME280;76997;51.520;11.962;2024-03-06T22:03:22;101597.9;;;5.303828;68
86342;BME280;76997;51.520;11.962;2024-03-06T22:08:22;101601.5;;;5.32668;67.70898
86342;BME280;76997;51.520;11.962;2024-03-06T22:13:22;101597.1;;;5.444258;67.95898
86342;BME280;76997;51.520;11.962;2024-03-06T22:18:22;101601.3;;;5.400703;67.59473
86342;BME280;76997;51.520;11.962;2024-03-06T22:23:23;101598.2;;;5.336836;68.15332
86342;BME280;76997;51.520;11.962;2024-03-06T22:28:22;101598.9;;;5.331758;67.67969
86342;BME280;76997;51.520;11.962;2024-03-06T22:33:22;101598.9;;;5.321601;67.96094
86342;BME280;76997;51.520;11.962;2024-03-06T22:38:22;101596;;;5.321601;69.17188
86342;BME280;76997;51.520;11.962;2024-03-06T22:43:22;101595.3;;;5.339571;69.6377
86342;BME280;76997;51.520;11.962;2024-03-06T22:48:22;101593.9;;;5.372774;68.05371
86342;BME280;76997;51.520;11.962;2024-03-06T22:53:22;101599;;;5.311445;67.32715
86342;BME280;76997;51.520;11.962;2024-03-06T22:58:22;101591.8;;;5.339571;67.80566
86342;BME280;76997;51.520;11.962;2024-03-06T23:03:22;101593.3;;;5.3675;68.04199
86342;BME280;76997;51.520;11.962;2024-03-06T23:08:22;101590.6;;;5.3675;67.46289
86342;BME280;76997;51.520;11.962;2024-03-06T23:13:22;101591.7;;;5.354805;66.94434
86342;BME280;76997;51.520;11.962;2024-03-06T23:18:22;101588.7;;;5.3675;67.73633
86342;BME280;76997;51.520;11.962;2024-03-06T23:23:22;101587.9;;;5.416133;69.16602
86342;BME280;76997;51.520;11.962;2024-03-06T23:28:22;101586.4;;;5.398164;67.37207
86342;BME280;76997;51.520;11.962;2024-03-06T23:33:22;101588.6;;;5.446797;67.45508
86342;BME280;76997;51.520;11.962;2024-03-06T23:38:22;101581.8;;;5.388008;67.09668
86342;BME280;76997;51.520;11.962;2024-03-06T23:43:22;101585.5;;;5.449336;67.2334
86342;BME280;76997;51.520;11.962;2024-03-06T23:48:22;101581.7;;;5.495235;67.62012
86342;BME280;76997;51.520;11.962;2024-03-06T23:53:22;101576.2;;;5.403242;68.35352
86342;BME280;76997;51.520;11.962;2024-03-06T23:58:22;101576.3;;;5.354805;68.49316
